Flight Track Log - Related Links

Times and Time Zones

All times are in EDT time to prevent confusion due to time zone crossing. See the N114SP flight status page for this flight to view local times or setup timezone preferences in your user account.

Time Position Orientation Groundspeed Altitude Reporting Facility
EDT Latitude Longitude Course Direction KTS MPH feet Rate Location/Type
Wed 01:13:31 PM 44.9667 -93.0500 23° Northeast 92 106 1,600  Level Minneapolis TRACON
Wed 01:14:31 PM 44.9833 -93.0333 35° Northeast 92 106 2,300 589 Climbing Minneapolis TRACON
Wed 01:15:23 PM 44.9939 -93.0139 52° Northeast 94 108 2,700 579 Climbing Minneapolis Center
Wed 01:16:25 PM 45.0172 -92.9833 43° Northeast 96 110 3,400 581 Climbing Minneapolis Center
Wed 01:17:27 PM 45.0372 -92.9578 42° Northeast 96 110 3,900 484 Climbing Minneapolis Center
Wed 01:18:29 PM 45.0614 -92.9397 28° Northeast 98 113 4,400 484 Climbing Minneapolis Center
Wed 01:19:00 PM 45.0947 -92.9502 23° Northeast  Level FlightAware
Wed 01:19:31 PM 45.0831 -92.9228 29° Northeast 94 108 4,900  Level Minneapolis Center
Wed 01:20:34 PM 45.1044 -92.9069 28° Northeast 89 102 5,000 48 Climbing Minneapolis Center
Wed 01:21:36 PM 45.1339 -92.8858 27° Northeast 113 130 5,000  Level Minneapolis Center
Wed 01:22:38 PM 45.1703 -92.8594 27° Northeast 119 137 5,000  Level Minneapolis Center
Wed 01:23:40 PM 45.2014 -92.8403 23° Northeast 120 138 5,000  Level Minneapolis Center
Wed 01:24:42 PM 45.2322 -92.8219 23° Northeast 120 138 5,000  Level Minneapolis Center
Wed 01:25:44 PM 45.2622 -92.8028 24° Northeast 120 138 5,000 48 Level Minneapolis Center
Wed 01:26:46 PM 45.2922 -92.7828 25° Northeast 120 138 5,100  Climbing Minneapolis Center
Wed 01:27:48 PM 45.3286 -92.7556 28° Northeast 121 139 5,000 -96 Descending Minneapolis Center
Wed 01:28:51 PM 45.3581 -92.7331 28° Northeast 121 139 4,900  Descending Minneapolis Center
Wed 01:29:53 PM 45.3875 -92.7086 30° Northeast 121 139 5,000 97 Climbing Minneapolis Center
Wed 01:30:55 PM 45.4156 -92.6875 28° Northeast 117 135 5,100 48 Climbing Minneapolis Center
Wed 01:31:57 PM 45.4442 -92.6656 28° Northeast 117 135 5,100 -48 Level Minneapolis Center
Wed 01:32:59 PM 45.4744 -92.6469 23° Northeast 118 136 5,000 -48 Descending Minneapolis Center
Wed 01:34:01 PM 45.5117 -92.6233 24° Northeast 119 137 5,000  Level Minneapolis Center
Wed 01:35:03 PM 45.5428 -92.6039 24° Northeast 120 138 5,000  Level Minneapolis Center
Wed 01:36:05 PM 45.5731 -92.5844 24° Northeast 120 138 5,000  Level Minneapolis Center
Wed 01:37:08 PM 45.6042 -92.5653 23° Northeast 121 139 5,000  Level Minneapolis Center
Wed 01:38:10 PM 45.6356 -92.5453 24° Northeast 121 139 5,000  Level Minneapolis Center
Wed 01:39:12 PM 45.6739 -92.5264 19° North 121 139 5,000  Level Minneapolis Center
Wed 01:40:14 PM 45.7061 -92.5097 20° North 122 140 5,000  Level Minneapolis Center
Wed 01:41:16 PM 45.7375 -92.4928 21° North 121 139 5,000 48 Level Minneapolis Center
Wed 01:42:18 PM 45.7675 -92.4725 25° Northeast 121 139 5,100  Climbing Minneapolis Center
Wed 01:43:20 PM 45.7978 -92.4506 27° Northeast 121 139 5,000 -48 Descending Minneapolis Center
Wed 01:44:22 PM 45.8294 -92.4325 22° Northeast 121 139 5,000  Level Minneapolis Center
Wed 01:45:25 PM 45.8678 -92.4089 23° Northeast 121 139 5,000  Level Minneapolis Center
Wed 01:46:27 PM 45.9006 -92.3900 22° Northeast 122 140 5,000  Level Minneapolis Center
Wed 01:47:29 PM 45.9317 -92.3681 26° Northeast 122 140 5,000  Level Minneapolis Center
Wed 01:48:31 PM 45.9622 -92.3453 27° Northeast 122 140 5,000 48 Level Minneapolis Center
Wed 01:49:33 PM 45.9939 -92.3256 23° Northeast 122 140 5,100  Climbing Minneapolis Center
Wed 01:50:35 PM 46.0239 -92.3053 25° Northeast 122 140 5,000 -48 Descending Minneapolis Center
Wed 01:51:37 PM 46.0589 -92.2772 29° Northeast 122 140 5,000 48 Level Minneapolis Center
Wed 01:52:40 PM 46.0942 -92.2619 17° North 122 140 5,100  Climbing Minneapolis Center
Wed 01:53:54 PM 46.1300 -92.2400 23° Northeast 151 174 5,000 -44 Descending Minneapolis Center
Wed 01:54:56 PM 46.1597 -92.2244 20° North 123 142 5,000 37 Level Minneapolis Center
Wed 01:56:36 PM 46.2156 -92.1919 22° Northeast 135 155 5,100 37 Climbing Minneapolis Center
Wed 01:57:38 PM 46.2472 -92.1733 22° Northeast 121 139 5,100  Level Minneapolis Center
Wed 01:58:40 PM 46.2778 -92.1575 20° North 121 139 5,100 48 Level Minneapolis Center
Wed 01:59:44 PM 46.3078 -92.1389 23° Northeast 121 139 5,200 -48 Climbing Minneapolis Center
Wed 02:00:46 PM 46.3461 -92.1158 23° Northeast 121 139 5,000 -48 Descending Minneapolis Center
Wed 02:01:49 PM 46.3781 -92.0972 22° Northeast 121 139 5,100 48 Climbing Minneapolis Center
Wed 02:02:51 PM 46.4103 -92.0778 23° Northeast 121 139 5,100  Level Minneapolis Center
Wed 02:03:53 PM 46.4417 -92.0583 23° Northeast 122 140 5,100 48 Level Minneapolis Center
Wed 02:04:55 PM 46.4731 -92.0411 21° North 122 140 5,200 -48 Climbing Minneapolis Center
Wed 02:05:57 PM 46.5050 -92.0203 24° Northeast 122 140 5,000 -97 Descending Minneapolis Center
Wed 02:06:59 PM 46.5442 -91.9925 26° Northeast 123 142 5,000 96 Level Minneapolis Center
Wed 02:08:02 PM 46.5753 -91.9722 24° Northeast 124 143 5,200 48 Climbing Minneapolis Center
Wed 02:09:04 PM 46.6039 -91.9519 26° Northeast 124 143 5,100 -48 Descending Minneapolis Center
Wed 02:10:06 PM 46.6344 -91.9344 21° North 123 142 5,100  Level Minneapolis Center
Wed 02:11:08 PM 46.6661 -91.9139 24° Northeast 122 140 5,100  Level Minneapolis Center
Wed 02:12:10 PM 46.7047 -91.8950 19° North 123 142 5,100 -48 Level Minneapolis Center
Wed 02:13:12 PM 46.7356 -91.8747 24° Northeast 123 142 5,000 -48 Descending Minneapolis Center
Wed 02:14:14 PM 46.7667 -91.8594 19° North 122 140 5,000  Level Minneapolis Center
Wed 02:15:17 PM 46.7997 -91.8417 20° North 122 140 5,000  Level Minneapolis Center
Wed 02:17:00 PM 46.8538 -91.8282 10° North  Level FlightAware
Wed 02:24:00 PM 47.0333 -91.7333 19° North  Level FlightAware
Wed 02:25:00 PM 47.0491 -91.7452 326° Northwest  Level Estimated

Login

Don't have an account? Register now (free) for customized features, flight alerts, and more!